Time;durP1;ratioP1;P1;durP2;ratioP2;P2;SDS_P1;SDS_P2;PMS_P1;PMS_P2;Temp;Humidity;BMP_temperature;BMP_pressure;BME280_temperature;BME280_humidity;BME280_pressure;Samples;Min_cycle;Max_cycle;Signal;HPM_P1;HPM_P2
2023/09/05 00:02:07;;;;;;;4.05;2.72;;;14.70;99.90;;;;;;5115048;28;20476;-73
2023/09/05 00:04:33;;;;;;;4.68;2.80;;;14.60;99.90;;;;;;5115363;28;20465;-73
2023/09/05 00:06:59;;;;;;;4.35;2.65;;;14.60;99.90;;;;;;5114928;28;20127;-73
2023/09/05 00:09:24;;;;;;;4.63;3.05;;;14.60;99.90;;;;;;5115013;28;20024;-73
2023/09/05 00:11:50;;;;;;;3.25;2.10;;;14.50;99.90;;;;;;5096691;28;20035;-73
2023/09/05 00:14:18;;;;;;;4.47;2.90;;;14.40;99.90;;;;;;5115183;28;20046;-73
2023/09/05 00:16:44;;;;;;;4.28;2.80;;;14.40;99.90;;;;;;5114843;28;20023;-73
2023/09/05 00:19:10;;;;;;;4.82;3.28;;;14.40;99.90;;;;;;5115098;28;20148;-73
2023/09/05 00:21:36;;;;;;;3.40;2.40;;;14.30;99.90;;;;;;5114635;28;20032;-73
2023/09/05 00:24:27;;;;;;;3.67;2.60;;;14.30;99.90;;;;;;5114992;28;20480;-73
2023/09/05 00:26:55;;;;;;;4.00;2.65;;;14.30;99.90;;;;;;5114536;28;20475;-73
2023/09/05 00:29:22;;;;;;;5.22;2.70;;;14.30;99.90;;;;;;5114664;28;20034;-73
2023/09/05 00:31:47;;;;;;;3.97;2.42;;;14.30;99.90;;;;;;5114532;28;20019;-73
2023/09/05 00:34:14;;;;;;;4.40;2.58;;;14.20;99.90;;;;;;5114552;28;20146;-73
2023/09/05 00:36:40;;;;;;;4.32;2.85;;;14.20;99.90;;;;;;5114453;28;20024;-73
2023/09/05 00:39:06;;;;;;;3.60;2.60;;;14.20;99.90;;;;;;5114447;28;20492;-73
2023/09/05 00:41:32;;;;;;;3.42;2.38;;;14.10;99.90;;;;;;5096057;28;20085;-73
2023/09/05 00:43:59;;;;;;;4.38;2.70;;;14.10;99.90;;;;;;5114307;28;20020;-73
2023/09/05 00:46:26;;;;;;;5.28;2.92;;;14.00;99.90;;;;;;5114180;28;20425;-73
2023/09/05 00:48:52;;;;;;;4.85;3.00;;;14.00;99.90;;;;;;5114297;28;20024;-73
2023/09/05 00:51:21;;;;;;;4.45;2.70;;;14.00;99.90;;;;;;5114420;28;20022;-73
2023/09/05 00:53:46;;;;;;;5.38;2.65;;;14.00;99.90;;;;;;5114220;28;20030;-73
2023/09/05 00:56:12;;;;;;;3.75;2.63;;;14.00;99.90;;;;;;5113868;28;20102;-73
2023/09/05 00:58:38;;;;;;;4.28;2.60;;;14.00;99.90;;;;;;5113598;28;20479;-73
2023/09/05 01:01:03;;;;;;;4.28;2.50;;;13.90;99.90;;;;;;5114031;28;20132;-73
2023/09/05 01:03:29;;;;;;;7.78;3.20;;;13.90;99.90;;;;;;5114630;28;20042;-73
2023/09/05 01:05:57;;;;;;;4.35;2.88;;;13.90;99.90;;;;;;5103216;28;20032;-72
2023/09/05 01:08:42;;;;;;;5.90;3.20;;;13.80;99.90;;;;;;5112904;28;20133;-73
2023/09/05 01:11:08;;;;;;;4.10;2.75;;;13.80;99.90;;;;;;5113308;28;20027;-73
2023/09/05 01:13:38;;;;;;;4.88;2.90;;;13.80;99.90;;;;;;5111414;28;20027;-73
2023/09/05 01:16:04;;;;;;;5.07;2.90;;;13.80;99.90;;;;;;5101981;28;20528;-73
2023/09/05 01:18:34;;;;;;;4.05;2.90;;;13.70;99.90;;;;;;5113390;28;20035;-73
2023/09/05 01:21:39;;;;;;;4.03;2.93;;;13.70;99.90;;;;;;5095459;28;20065;-73
2023/09/05 01:24:21;;;;;;;4.28;2.67;;;13.60;99.90;;;;;;5113351;28;20019;-73
2023/09/05 01:26:48;;;;;;;5.20;2.65;;;13.60;99.90;;;;;;5093638;28;20024;-73
2023/09/05 01:29:25;;;;;;;5.28;2.67;;;13.50;99.90;;;;;;5093170;28;20031;-73
2023/09/05 01:31:53;;;;;;;4.05;2.70;;;13.50;99.90;;;;;;5093655;28;20050;-73
2023/09/05 01:34:19;;;;;;;4.93;2.90;;;13.40;99.90;;;;;;5093618;28;20103;-73
2023/09/05 01:36:44;;;;;;;5.45;2.92;;;13.40;99.90;;;;;;5096437;28;20107;-73
2023/09/05 01:39:10;;;;;;;4.30;2.80;;;13.30;99.90;;;;;;5113375;28;20035;-73
2023/09/05 01:41:35;;;;;;;3.90;2.70;;;13.30;99.90;;;;;;5111949;28;20047;-73
2023/09/05 01:44:01;;;;;;;4.03;2.67;;;13.30;99.90;;;;;;5113039;28;20057;-73
2023/09/05 01:46:27;;;;;;;6.13;3.42;;;13.30;99.90;;;;;;5112850;28;20094;-73
2023/09/05 01:48:52;;;;;;;4.57;2.97;;;13.30;99.90;;;;;;5112958;28;20054;-74
2023/09/05 01:51:18;;;;;;;4.70;2.83;;;13.30;99.90;;;;;;5113339;28;20023;-73
2023/09/05 01:53:44;;;;;;;3.47;2.75;;;13.30;99.90;;;;;;5113491;28;20512;-73
2023/09/05 01:56:09;;;;;;;4.50;2.65;;;13.30;99.90;;;;;;5113774;28;20030;-73
2023/09/05 01:58:35;;;;;;;5.25;2.70;;;13.20;99.90;;;;;;5113820;28;20032;-73
2023/09/05 02:01:03;;;;;;;3.92;2.40;;;13.20;99.90;;;;;;5113732;28;20023;-73
2023/09/05 02:03:29;;;;;;;4.78;2.78;;;13.20;99.90;;;;;;5113941;28;20102;-72
2023/09/05 02:05:54;;;;;;;5.20;3.10;;;13.20;99.90;;;;;;5095176;28;20067;-73
2023/09/05 02:08:20;;;;;;;5.18;2.72;;;13.10;99.90;;;;;;5114417;28;20047;-73
2023/09/05 02:10:46;;;;;;;5.78;3.03;;;13.10;99.90;;;;;;5117256;28;20020;-73
2023/09/05 02:13:12;;;;;;;3.80;2.70;;;13.00;99.90;;;;;;5099516;28;20474;-73
2023/09/05 02:15:38;;;;;;;4.43;3.08;;;13.00;99.90;;;;;;5117436;28;20107;-73
2023/09/05 02:18:10;;;;;;;3.97;2.63;;;13.00;99.90;;;;;;5117240;28;20448;-73
2023/09/05 02:20:39;;;;;;;4.38;2.70;;;12.90;99.90;;;;;;5100208;28;20039;-73
2023/09/05 02:23:05;;;;;;;4.15;2.80;;;12.70;99.90;;;;;;5117037;28;20034;-73
2023/09/05 02:25:31;;;;;;;4.25;2.90;;;12.70;99.90;;;;;;5117016;28;20020;-73
2023/09/05 02:27:57;;;;;;;4.05;3.00;;;12.70;99.90;;;;;;5098674;28;20038;-73
2023/09/05 02:30:23;;;;;;;5.90;3.50;;;12.70;99.90;;;;;;5117511;28;20016;-73
2023/09/05 02:32:52;;;;;;;5.70;3.80;;;12.60;99.90;;;;;;5116844;28;20027;-73
2023/09/05 02:35:20;;;;;;;6.03;4.70;;;12.60;99.90;;;;;;5116912;28;20055;-73
2023/09/05 02:37:49;;;;;;;6.05;4.07;;;12.60;99.90;;;;;;5116842;28;20043;-73
2023/09/05 02:40:15;;;;;;;6.03;3.28;;;12.60;99.90;;;;;;5116724;28;20032;-73
2023/09/05 02:42:40;;;;;;;4.90;3.35;;;12.60;99.90;;;;;;5117019;28;20046;-73
2023/09/05 02:45:06;;;;;;;6.50;3.35;;;12.60;99.90;;;;;;5116718;28;20039;-73
2023/09/05 02:47:32;;;;;;;3.95;3.38;;;12.60;99.90;;;;;;5116526;28;20031;-73
2023/09/05 02:49:58;;;;;;;4.82;3.00;;;12.70;99.90;;;;;;5098320;28;20118;-73
2023/09/05 02:52:24;;;;;;;6.55;3.15;;;12.60;99.90;;;;;;5098225;28;20111;-73
2023/09/05 02:54:50;;;;;;;3.95;2.85;;;12.60;99.90;;;;;;5116290;28;20035;-73
2023/09/05 02:57:16;;;;;;;5.32;3.17;;;12.60;99.90;;;;;;5116972;28;20032;-73
2023/09/05 02:59:42;;;;;;;6.22;2.90;;;12.50;99.90;;;;;;5116314;28;20149;-72
2023/09/05 03:02:08;;;;;;;4.55;3.35;;;12.50;99.90;;;;;;5116325;28;20114;-73
2023/09/05 03:04:34;;;;;;;5.85;3.10;;;12.50;99.90;;;;;;5116513;28;20027;-73
2023/09/05 03:07:03;;;;;;;4.53;2.95;;;12.40;99.90;;;;;;5116434;28;20028;-73
2023/09/05 03:09:29;;;;;;;4.28;2.85;;;12.40;99.90;;;;;;5116239;28;20038;-73
2023/09/05 03:11:55;;;;;;;5.25;2.72;;;12.30;99.90;;;;;;5116146;28;20019;-72
2023/09/05 03:14:21;;;;;;;4.90;2.92;;;12.30;99.90;;;;;;5116171;28;20103;-72
2023/09/05 03:16:47;;;;;;;4.45;2.60;;;12.30;99.90;;;;;;5116036;28;20077;-73
2023/09/05 03:19:13;;;;;;;4.15;2.70;;;12.30;99.90;;;;;;5116151;28;20031;-73
2023/09/05 03:21:39;;;;;;;5.97;3.10;;;12.30;99.90;;;;;;5115250;28;20476;-73
2023/09/05 03:24:05;;;;;;;4.55;2.92;;;12.30;99.90;;;;;;5116406;28;20032;-73
2023/09/05 03:26:30;;;;;;;5.25;2.75;;;12.30;99.90;;;;;;5080645;28;20024;-73
2023/09/05 03:28:56;;;;;;;4.50;2.85;;;12.20;99.90;;;;;;5115840;28;20023;-73
2023/09/05 03:31:27;;;;;;;4.20;2.83;;;12.10;99.90;;;;;;5115692;28;20487;-73
2023/09/05 03:33:54;;;;;;;4.05;3.00;;;12.10;99.90;;;;;;5116096;28;20438;-73
2023/09/05 03:36:26;;;;;;;5.20;2.97;;;12.00;99.90;;;;;;5115735;28;20034;-73
2023/09/05 03:38:52;;;;;;;5.55;2.75;;;11.90;99.90;;;;;;5115621;28;20480;-73
2023/09/05 03:41:18;;;;;;;5.05;3.30;;;11.90;99.90;;;;;;5115475;28;20123;-73
2023/09/05 03:43:43;;;;;;;5.35;3.10;;;11.90;99.90;;;;;;5115542;28;20084;-73
2023/09/05 03:46:09;;;;;;;6.03;2.95;;;11.90;99.90;;;;;;5115275;28;20031;-73
2023/09/05 03:48:34;;;;;;;5.95;3.13;;;12.00;99.90;;;;;;5115421;28;20028;-73
2023/09/05 03:51:00;;;;;;;4.10;2.92;;;12.00;99.90;;;;;;5115627;28;20023;-73
2023/09/05 03:53:26;;;;;;;4.78;3.10;;;11.90;99.90;;;;;;5097362;28;20032;-72
2023/09/05 03:55:52;;;;;;;5.47;2.90;;;11.90;99.90;;;;;;5114069;28;20024;-72
2023/09/05 03:58:17;;;;;;;5.00;2.70;;;11.90;99.90;;;;;;5103188;28;20032;-72
2023/09/05 04:00:43;;;;;;;5.53;3.10;;;11.90;99.90;;;;;;5094997;28;20441;-73
2023/09/05 04:03:12;;;;;;;4.78;2.85;;;11.90;99.90;;;;;;5112354;28;20035;-73
2023/09/05 04:05:38;;;;;;;5.05;3.05;;;11.80;99.90;;;;;;5103362;28;20024;-73
2023/09/05 04:08:07;;;;;;;5.50;3.30;;;11.80;99.90;;;;;;5080964;28;20042;-73
2023/09/05 04:10:34;;;;;;;4.82;2.90;;;11.80;99.90;;;;;;5107412;28;20118;-73
2023/09/05 04:13:00;;;;;;;4.53;2.80;;;11.80;99.90;;;;;;5114327;28;20103;-72
2023/09/05 04:15:25;;;;;;;5.05;3.20;;;11.80;99.90;;;;;;5101033;28;20468;-73
2023/09/05 04:17:51;;;;;;;5.15;3.05;;;11.70;99.90;;;;;;5114178;28;20059;-73
2023/09/05 04:20:18;;;;;;;4.28;3.00;;;11.80;99.90;;;;;;5097256;28;20030;-73
2023/09/05 04:22:43;;;;;;;5.60;2.58;;;11.70;99.90;;;;;;5094576;28;20028;-73
2023/09/05 04:25:09;;;;;;;4.25;3.10;;;11.70;99.90;;;;;;5098985;28;20028;-73
2023/09/05 04:27:36;;;;;;;4.40;2.92;;;11.70;99.90;;;;;;5094383;28;20082;-73
2023/09/05 04:30:03;;;;;;;4.15;2.80;;;11.70;99.90;;;;;;5101067;28;20049;-73
2023/09/05 04:32:30;;;;;;;4.80;2.90;;;11.70;99.90;;;;;;5107729;28;20113;-73
2023/09/05 04:35:02;;;;;;;7.13;3.00;;;11.70;99.90;;;;;;5094455;28;20024;-73
2023/09/05 04:37:28;;;;;;;4.45;2.70;;;11.60;99.90;;;;;;5097960;28;20023;-73
2023/09/05 04:39:54;;;;;;;5.75;3.00;;;11.60;99.90;;;;;;5113861;28;20031;-72
2023/09/05 04:42:21;;;;;;;3.88;2.70;;;11.60;99.90;;;;;;5079010;28;20027;-72
2023/09/05 04:44:46;;;;;;;5.95;2.97;;;11.60;99.90;;;;;;5079352;28;20122;-72
2023/09/05 04:47:34;;;;;;;7.32;3.67;;;11.50;99.90;;;;;;5082227;28;20115;-72
2023/09/05 04:50:00;;;;;;;5.82;3.40;;;11.40;99.90;;;;;;5100551;28;20035;-73
2023/09/05 04:52:29;;;;;;;4.53;2.90;;;11.40;99.90;;;;;;5108205;28;20046;-72
2023/09/05 04:54:56;;;;;;;6.18;3.35;;;11.40;99.90;;;;;;5106930;28;20074;-73
2023/09/05 04:57:22;;;;;;;4.50;2.80;;;11.30;99.90;;;;;;5106485;28;20028;-73
2023/09/05 04:59:48;;;;;;;6.38;3.22;;;11.30;99.90;;;;;;5115769;27;20027;-73
2023/09/05 05:02:17;;;;;;;6.28;3.88;;;11.30;99.90;;;;;;5103457;27;20034;-73
2023/09/05 05:04:46;;;;;;;5.60;3.17;;;11.30;99.90;;;;;;5103381;28;20039;-73
2023/09/05 05:07:12;;;;;;;4.57;2.80;;;11.30;99.90;;;;;;5100862;28;20020;-73
2023/09/05 05:09:39;;;;;;;5.18;3.38;;;11.30;99.90;;;;;;5100243;28;20103;-73
2023/09/05 05:12:05;;;;;;;6.57;3.30;;;11.30;99.90;;;;;;5093668;28;20031;-73
2023/09/05 05:14:31;;;;;;;5.00;2.90;;;11.40;99.90;;;;;;5094416;28;20076;-73
2023/09/05 05:16:57;;;;;;;6.20;3.25;;;11.40;99.90;;;;;;5113288;28;20027;-73
2023/09/05 05:19:23;;;;;;;5.50;2.90;;;11.40;99.90;;;;;;5095277;28;20043;-73
2023/09/05 05:21:52;;;;;;;7.03;3.40;;;11.30;99.90;;;;;;5095529;28;20028;-73
2023/09/05 05:24:18;;;;;;;5.72;3.30;;;11.30;99.90;;;;;;5113888;28;20024;-73
2023/09/05 05:26:44;;;;;;;6.57;3.10;;;11.30;99.90;;;;;;5095300;28;20511;-73
2023/09/05 05:29:10;;;;;;;5.97;3.25;;;11.30;99.90;;;;;;5113758;28;20392;-73
2023/09/05 05:31:37;;;;;;;7.13;3.08;;;11.30;99.90;;;;;;5113612;28;20015;-73
2023/09/05 05:34:03;;;;;;;5.40;3.45;;;11.30;99.90;;;;;;5113644;28;20034;-73
2023/09/05 05:36:29;;;;;;;4.60;3.13;;;11.30;99.90;;;;;;5113521;28;20103;-73
2023/09/05 05:38:56;;;;;;;5.35;3.13;;;11.20;99.90;;;;;;5094629;28;20081;-74
2023/09/05 05:41:21;;;;;;;4.90;3.17;;;11.20;99.90;;;;;;5075337;28;20036;-73
2023/09/05 05:43:47;;;;;;;5.63;3.30;;;11.20;99.90;;;;;;5095906;28;20024;-74
2023/09/05 05:46:14;;;;;;;7.05;3.92;;;11.20;99.90;;;;;;5117082;28;20035;-73
2023/09/05 05:48:40;;;;;;;6.25;3.65;;;11.30;99.90;;;;;;5117722;28;20024;-73
2023/09/05 05:51:06;;;;;;;5.68;3.55;;;11.30;99.90;;;;;;5118212;28;20032;-73
2023/09/05 05:53:32;;;;;;;6.22;3.95;;;11.40;99.90;;;;;;5117527;28;20038;-73
2023/09/05 05:55:58;;;;;;;6.55;3.70;;;11.50;99.90;;;;;;5117703;28;20110;-73
2023/09/05 05:58:24;;;;;;;8.45;3.55;;;11.50;99.90;;;;;;5117856;28;20103;-73
2023/09/05 06:00:52;;;;;;;13.35;4.10;;;11.50;99.90;;;;;;5117474;28;20164;-73
2023/09/05 06:03:18;;;;;;;6.90;3.92;;;11.60;99.90;;;;;;5117468;28;20411;-73
2023/09/05 06:05:48;;;;;;;7.25;3.60;;;11.70;99.90;;;;;;5117521;28;20076;-73
2023/09/05 06:08:14;;;;;;;5.95;3.95;;;11.70;99.90;;;;;;5099040;28;20024;-73
2023/09/05 06:10:40;;;;;;;8.32;4.22;;;11.80;99.90;;;;;;5117649;28;20026;-73
2023/09/05 06:13:06;;;;;;;5.78;3.60;;;11.90;99.90;;;;;;5099178;28;20028;-73
2023/09/05 06:15:33;;;;;;;5.75;3.80;;;11.90;99.90;;;;;;5117561;28;20045;-73
2023/09/05 06:18:00;;;;;;;8.32;4.05;;;12.00;99.90;;;;;;5117326;28;20501;-73
2023/09/05 06:20:26;;;;;;;8.52;4.90;;;12.00;99.90;;;;;;5117325;28;20090;-73
2023/09/05 06:22:51;;;;;;;8.55;5.10;;;12.10;99.90;;;;;;5099167;28;20082;-73
2023/09/05 06:25:17;;;;;;;8.63;5.07;;;12.20;99.90;;;;;;5117163;28;20024;-73
2023/09/05 06:27:43;;;;;;;8.18;5.35;;;12.20;99.90;;;;;;5117011;28;20115;-73
2023/09/05 06:30:13;;;;;;;8.52;5.72;;;12.30;99.90;;;;;;5117252;28;20039;-73
2023/09/05 06:32:39;;;;;;;8.95;5.18;;;12.30;99.90;;;;;;5117262;28;20414;-73
2023/09/05 06:35:09;;;;;;;8.43;5.32;;;12.40;99.90;;;;;;5116942;28;20027;-73
2023/09/05 06:37:35;;;;;;;8.70;5.32;;;12.40;99.90;;;;;;5116866;28;20077;-73
2023/09/05 06:40:06;;;;;;;6.43;4.72;;;12.40;99.90;;;;;;5098550;28;20035;-73
2023/09/05 06:42:32;;;;;;;10.75;6.63;;;12.40;99.90;;;;;;5117080;28;20024;-73
2023/09/05 06:44:58;;;;;;;10.38;6.30;;;12.40;99.90;;;;;;5116720;28;20028;-73
2023/09/05 06:47:24;;;;;;;10.60;7.13;;;12.40;99.90;;;;;;5116628;28;20024;-73
2023/09/05 06:49:49;;;;;;;10.63;6.00;;;12.50;99.90;;;;;;5116926;28;20019;-73
2023/09/05 06:52:15;;;;;;;7.72;5.43;;;12.50;99.90;;;;;;5098248;28;20368;-73
2023/09/05 06:54:41;;;;;;;12.10;7.00;;;12.70;99.90;;;;;;5115281;28;20067;-73
2023/09/05 06:57:08;;;;;;;12.73;7.05;;;12.80;99.90;;;;;;5116404;28;20050;-73
2023/09/05 06:59:35;;;;;;;12.80;8.10;;;12.90;99.90;;;;;;5116446;28;20032;-73
2023/09/05 07:02:04;;;;;;;12.75;7.47;;;13.00;99.90;;;;;;5116387;28;20024;-73
2023/09/05 07:04:33;;;;;;;15.57;8.05;;;13.10;99.90;;;;;;5098088;28;20110;-73
2023/09/05 07:06:58;;;;;;;11.38;7.90;;;13.20;99.90;;;;;;5116256;28;20046;-73
2023/09/05 07:09:24;;;;;;;9.75;6.95;;;13.30;99.90;;;;;;5116294;28;20028;-73
2023/09/05 07:11:51;;;;;;;9.48;6.30;;;13.40;99.90;;;;;;5116235;28;20591;-73
2023/09/05 07:14:17;;;;;;;11.45;6.80;;;13.50;99.90;;;;;;5116511;28;20400;-73
2023/09/05 07:16:43;;;;;;;15.35;8.95;;;13.60;99.90;;;;;;5116342;28;20023;-73
2023/09/05 07:19:09;;;;;;;15.30;7.53;;;13.70;99.90;;;;;;5115959;28;20027;-73
2023/09/05 07:21:37;;;;;;;10.45;6.78;;;13.80;99.90;;;;;;5097616;28;20133;-73
2023/09/05 07:24:03;;;;;;;12.80;8.73;;;13.90;99.90;;;;;;5081833;28;20028;-73
2023/09/05 07:26:29;;;;;;;10.15;7.80;;;14.00;99.90;;;;;;5115769;28;20041;-73
2023/09/05 07:28:54;;;;;;;11.57;7.80;;;14.10;99.90;;;;;;5115845;28;20055;-73
2023/09/05 07:31:22;;;;;;;11.63;8.98;;;14.10;99.90;;;;;;5115771;28;20020;-74
2023/09/05 07:33:47;;;;;;;12.90;8.75;;;14.20;99.90;;;;;;5097950;28;20533;-73
2023/09/05 07:36:13;;;;;;;12.50;8.73;;;14.30;99.90;;;;;;5097536;28;20027;-73
2023/09/05 07:38:39;;;;;;;12.52;9.65;;;14.40;99.90;;;;;;5116030;28;20019;-73
2023/09/05 07:41:06;;;;;;;13.13;9.88;;;14.40;99.90;;;;;;5116192;28;20121;-73
2023/09/05 07:43:33;;;;;;;11.88;8.88;;;14.50;99.90;;;;;;5115916;28;20051;-73
2023/09/05 07:45:59;;;;;;;13.55;9.43;;;14.60;99.90;;;;;;5097293;28;20028;-73
2023/09/05 07:48:25;;;;;;;17.58;9.90;;;14.70;99.90;;;;;;5115451;28;20037;-73
2023/09/05 07:50:51;;;;;;;10.35;7.80;;;14.80;99.90;;;;;;5080451;28;20052;-73
2023/09/05 07:53:16;;;;;;;11.30;8.35;;;14.90;99.90;;;;;;5115732;28;20113;-73
2023/09/05 07:55:42;;;;;;;10.10;7.45;;;15.10;99.90;;;;;;5097176;28;20123;-73
2023/09/05 07:58:08;;;;;;;10.43;7.47;;;15.20;99.90;;;;;;5115309;28;20031;-73
2023/09/05 08:00:34;;;;;;;11.13;6.78;;;15.30;99.90;;;;;;5115169;28;20110;-73
2023/09/05 08:03:03;;;;;;;10.52;7.88;;;15.50;99.90;;;;;;5115166;28;20483;-73
2023/09/05 08:05:29;;;;;;;11.60;8.10;;;15.60;99.90;;;;;;5096843;28;20391;-73
2023/09/05 08:07:55;;;;;;;8.95;6.97;;;15.70;99.90;;;;;;5114691;28;20032;-73
2023/09/05 08:10:20;;;;;;;11.40;7.35;;;15.90;99.90;;;;;;5114917;28;20074;-73
2023/09/05 08:12:46;;;;;;;11.73;7.60;;;16.00;99.90;;;;;;5096813;28;20047;-73
2023/09/05 08:15:12;;;;;;;12.77;8.30;;;16.10;99.90;;;;;;5115260;28;20035;-73
2023/09/05 08:17:37;;;;;;;10.00;6.90;;;16.30;99.90;;;;;;5114968;28;20031;-73
2023/09/05 08:20:04;;;;;;;14.40;6.07;;;16.50;99.90;;;;;;5114892;28;20063;-73
2023/09/05 08:22:30;;;;;;;7.40;5.60;;;16.60;99.90;;;;;;5115043;28;20388;-73
2023/09/05 08:24:56;;;;;;;9.02;4.90;;;16.80;99.90;;;;;;5096483;28;20495;-73
2023/09/05 08:27:28;;;;;;;9.98;4.60;;;16.90;99.90;;;;;;5120300;27;20077;-74
2023/09/05 08:29:55;;;;;;;7.68;5.35;;;17.10;99.90;;;;;;5134411;27;20100;-74
2023/09/05 08:32:21;;;;;;;8.98;6.85;;;17.30;99.90;;;;;;5134471;27;20399;-74
2023/09/05 08:34:46;;;;;;;12.93;7.78;;;17.40;99.90;;;;;;5116136;27;20031;-73
2023/09/05 08:37:12;;;;;;;10.55;7.35;;;17.60;99.90;;;;;;5116897;27;20027;-73
2023/09/05 08:39:38;;;;;;;8.95;5.85;;;17.70;99.90;;;;;;5116733;27;20027;-73
2023/09/05 08:42:07;;;;;;;8.60;6.45;;;17.90;99.90;;;;;;5129681;27;20058;-73
2023/09/05 08:44:41;;;;;;;7.88;5.57;;;18.00;99.90;;;;;;5114679;28;20023;-73
2023/09/05 08:47:07;;;;;;;7.05;4.97;;;18.20;99.90;;;;;;5096656;28;20051;-73
2023/09/05 08:49:33;;;;;;;10.55;4.72;;;18.30;99.90;;;;;;5096074;28;20476;-73
2023/09/05 08:52:04;;;;;;;6.72;4.10;;;18.40;99.90;;;;;;5095666;28;20059;-74
2023/09/05 08:54:30;;;;;;;;;;;18.50;99.90;;;;;;5113731;28;20042;-73
2023/09/05 08:56:57;;;;;;;7.75;4.43;;;18.60;99.90;;;;;;5114699;28;19998;-73
2023/09/05 08:59:25;;;;;;;5.68;4.05;;;18.60;99.90;;;;;;5114503;28;20400;-74
2023/09/05 09:01:51;;;;;;;9.73;5.03;;;18.70;99.90;;;;;;5114401;28;20054;-73
2023/09/05 09:04:19;;;;;;;7.28;4.32;;;18.80;99.90;;;;;;5096681;28;20461;-73
2023/09/05 09:06:57;;;;;;;7.80;3.88;;;18.90;99.90;;;;;;5095669;28;20077;-74
2023/09/05 09:09:34;;;;;;;5.03;3.75;;;19.00;99.90;;;;;;5114596;28;20032;-74
2023/09/05 09:12:01;;;;;;;6.07;4.13;;;19.20;99.90;;;;;;5113933;28;20024;-74
2023/09/05 09:14:26;;;;;;;5.75;3.92;;;19.40;99.90;;;;;;5113951;28;20023;-74
2023/09/05 09:16:53;;;;;;;6.43;3.83;;;19.50;99.90;;;;;;5114029;28;20073;-74
2023/09/05 09:19:18;;;;;;;4.25;3.45;;;19.60;99.90;;;;;;5113446;28;20421;-74
2023/09/05 09:21:47;;;;;;;6.25;3.50;;;19.80;99.90;;;;;;5113777;28;20052;-74
2023/09/05 09:24:15;;;;;;;9.80;3.08;;;19.90;99.90;;;;;;5095604;28;20168;-74
2023/09/05 09:26:42;;;;;;;4.68;3.15;;;19.90;99.90;;;;;;5095587;28;20080;-74
2023/09/05 09:29:08;;;;;;;8.07;3.30;;;20.10;99.90;;;;;;5095484;28;20027;-74
2023/09/05 09:31:34;;;;;;;4.78;3.40;;;20.30;99.90;;;;;;5113685;28;20026;-74
2023/09/05 09:34:00;;;;;;;5.20;3.40;;;20.40;99.90;;;;;;5114315;28;20103;-73
2023/09/05 09:36:33;;;;;;;4.35;3.17;;;20.60;99.90;;;;;;5078800;28;20030;-72
2023/09/05 09:39:06;;;;;;;4.65;3.40;;;20.70;99.90;;;;;;5114515;28;20027;-72
2023/09/05 09:41:32;;;;;;;7.90;3.63;;;20.90;99.90;;;;;;5113992;28;20073;-73
2023/09/05 09:43:59;;;;;;;5.40;3.50;;;21.00;99.90;;;;;;5110822;28;20028;-72
2023/09/05 09:46:24;;;;;;;6.60;3.40;;;21.10;99.90;;;;;;5093990;28;20024;-73
2023/09/05 09:48:54;;;;;;;5.32;3.22;;;21.20;99.90;;;;;;5100956;28;20472;-73
2023/09/05 09:51:25;;;;;;;4.43;3.28;;;21.30;99.90;;;;;;5093370;28;20020;-73
2023/09/05 09:53:53;;;;;;;4.30;2.90;;;21.50;99.90;;;;;;5100028;28;20119;-73
2023/09/05 09:56:23;;;;;;;5.25;3.47;;;21.60;99.90;;;;;;5095774;28;20544;-73
2023/09/05 09:58:50;;;;;;;6.53;2.85;;;21.70;99.90;;;;;;5110709;28;20028;-73
2023/09/05 10:01:17;;;;;;;5.13;3.22;;;21.70;99.90;;;;;;5112838;28;20043;-73
2023/09/05 10:03:46;;;;;;;41.22;34.83;;;21.80;99.90;;;;;;5110459;28;20532;-73
2023/09/05 10:06:12;;;;;;;42.95;36.95;;;21.90;99.90;;;;;;5109133;28;20032;-73
2023/09/05 10:08:39;;;;;;;4.28;3.17;;;22.00;99.90;;;;;;5113056;28;20068;-74
2023/09/05 10:11:06;;;;;;;3.65;2.70;;;22.10;99.90;;;;;;5112885;28;20027;-73
2023/09/05 10:13:33;;;;;;;4.97;2.60;;;22.20;99.90;;;;;;5094659;28;20020;-73
2023/09/05 10:16:02;;;;;;;5.88;2.83;;;22.30;99.90;;;;;;5112843;28;20019;-73
2023/09/05 10:18:38;;;;;;;7.00;2.40;;;22.40;99.90;;;;;;5112787;28;20091;-73
2023/09/05 10:21:04;;;;;;;3.28;2.60;;;22.40;99.90;;;;;;5112775;28;20478;-73
2023/09/05 10:23:33;;;;;;;5.07;2.85;;;22.50;99.90;;;;;;5112758;28;20020;-73
2023/09/05 10:26:00;;;;;;;5.07;2.90;;;22.70;99.90;;;;;;5112513;28;20024;-74
2023/09/05 10:28:29;;;;;;;3.90;2.47;;;22.80;99.90;;;;;;5111183;28;20039;-74
2023/09/05 10:31:05;;;;;;;3.92;2.35;;;22.90;99.90;;;;;;5114485;28;20035;-73
2023/09/05 10:33:37;;;;;;;4.50;2.63;;;23.00;99.90;;;;;;5114968;28;20499;-74
2023/09/05 10:36:03;;;;;;;6.22;2.50;;;23.10;99.90;;;;;;5115496;28;20020;-73
2023/09/05 10:38:33;;;;;;;4.05;2.38;;;23.20;99.90;;;;;;5117165;28;20034;-73
2023/09/05 10:40:59;;;;;;;2.58;1.83;;;23.30;99.90;;;;;;5115573;28;20034;-73
2023/09/05 10:43:25;;;;;;;2.88;2.17;;;23.30;99.90;;;;;;5080315;28;20020;-73
2023/09/05 10:45:56;;;;;;;3.63;2.05;;;23.40;99.90;;;;;;5109772;28;20020;-74
2023/09/05 10:48:38;;;;;;;4.50;2.35;;;23.50;99.90;;;;;;5112112;28;20027;-73
2023/09/05 10:51:06;;;;;;;3.03;1.92;;;23.70;99.90;;;;;;5115992;28;20016;-73
2023/09/05 10:53:33;;;;;;;3.38;2.20;;;23.90;99.90;;;;;;5109617;28;20445;-73
2023/09/05 10:55:59;;;;;;;3.25;2.40;;;24.00;99.90;;;;;;5116040;28;20448;-73
2023/09/05 10:58:43;;;;;;;3.20;2.00;;;24.10;99.90;;;;;;5116039;28;20042;-73
2023/09/05 11:01:31;;;;;;;3.00;2.00;;;24.20;99.90;;;;;;5095936;28;20480;-73
2023/09/05 11:04:07;;;;;;;3.53;2.20;;;24.30;99.90;;;;;;5111382;28;20085;-74
2023/09/05 11:06:33;;;;;;;3.30;2.20;;;24.40;99.30;;;;;;5115749;28;20028;-73
2023/09/05 11:09:06;;;;;;;3.38;1.92;;;24.50;98.80;;;;;;5115749;28;20384;-73
2023/09/05 11:11:40;;;;;;;4.05;2.10;;;24.60;98.80;;;;;;5115721;28;20533;-73
2023/09/05 11:14:06;;;;;;;2.67;2.10;;;24.70;98.30;;;;;;5115649;28;20468;-73
2023/09/05 11:16:47;;;;;;;6.20;2.30;;;24.80;98.30;;;;;;5115291;28;20023;-73
2023/09/05 11:19:27;;;;;;;2.83;2.00;;;24.90;98.80;;;;;;5115505;28;20020;-73
2023/09/05 11:22:05;;;;;;;5.13;2.15;;;25.10;97.90;;;;;;5115584;28;20016;-73
2023/09/05 11:24:32;;;;;;;3.13;1.92;;;25.10;98.20;;;;;;5115761;28;20378;-73
2023/09/05 11:26:57;;;;;;;2.53;2.00;;;25.20;97.10;;;;;;5115821;28;20042;-73
2023/09/05 11:29:27;;;;;;;4.00;2.40;;;25.20;96.50;;;;;;5115324;28;20103;-73
2023/09/05 11:31:59;;;;;;;2.63;1.90;;;25.20;97.00;;;;;;5114911;28;20495;-73
2023/09/05 11:34:25;;;;;;;2.47;1.63;;;25.40;96.70;;;;;;5115453;28;20383;-73
2023/09/05 11:36:51;;;;;;;6.82;1.90;;;25.40;94.80;;;;;;5114331;28;20114;-73
2023/09/05 11:39:17;;;;;;;2.95;1.77;;;25.50;95.60;;;;;;5115659;28;20052;-73
2023/09/05 11:41:43;;;;;;;2.97;1.80;;;25.60;96.10;;;;;;5115172;28;20050;-73
2023/09/05 11:44:14;;;;;;;2.55;1.70;;;25.70;95.90;;;;;;5134381;27;20387;-73
2023/09/05 11:46:41;;;;;;;5.20;1.70;;;25.80;94.80;;;;;;5136048;27;20030;-73
2023/09/05 11:49:07;;;;;;;2.58;1.60;;;25.90;95.30;;;;;;5136882;27;20491;-73
2023/09/05 11:51:34;;;;;;;4.05;1.75;;;26.10;96.00;;;;;;5136070;27;20076;-74
2023/09/05 11:54:01;;;;;;;2.42;1.45;;;26.10;93.20;;;;;;5135782;27;20031;-75
2023/09/05 11:56:27;;;;;;;3.95;1.88;;;26.10;93.20;;;;;;5135907;27;20492;-74
2023/09/05 11:58:53;;;;;;;21.40;3.17;;;26.20;93.60;;;;;;5135902;27;20031;-74
2023/09/05 12:01:29;;;;;;;2.60;1.85;;;26.20;93.40;;;;;;5135857;27;20122;-75
2023/09/05 12:04:05;;;;;;;2.42;1.63;;;26.30;94.60;;;;;;5135772;27;20398;-74
2023/09/05 12:06:34;;;;;;;3.70;1.60;;;26.40;93.30;;;;;;5135698;27;20015;-74
2023/09/05 12:09:00;;;;;;;2.97;1.67;;;26.50;93.10;;;;;;5135646;27;20023;-74
2023/09/05 12:11:26;;;;;;;2.38;1.63;;;26.60;92.30;;;;;;5135636;27;20104;-74
2023/09/05 12:13:56;;;;;;;5.15;1.90;;;26.70;91.90;;;;;;5135649;27;20023;-74
2023/09/05 12:16:22;;;;;;;2.88;1.55;;;26.70;91.00;;;;;;5135603;27;20028;-73
2023/09/05 12:18:56;;;;;;;3.50;1.90;;;26.80;91.00;;;;;;5135437;27;20375;-73
2023/09/05 12:21:22;;;;;;;2.40;1.60;;;26.70;91.30;;;;;;5135425;27;20038;-74
2023/09/05 12:23:48;;;;;;;4.05;1.77;;;26.70;90.60;;;;;;5135390;27;20106;-74
2023/09/05 12:26:14;;;;;;;2.60;1.75;;;26.70;90.30;;;;;;5135418;27;20016;-73
2023/09/05 12:28:41;;;;;;;2.45;1.40;;;26.70;87.80;;;;;;5116836;27;20399;-74
2023/09/05 12:31:09;;;;;;;3.60;1.80;;;26.70;90.30;;;;;;5116910;27;20035;-74
2023/09/05 12:33:35;;;;;;;2.17;1.63;;;26.80;88.60;;;;;;5116935;27;20088;-74
2023/09/05 12:36:02;;;;;;;2.17;1.35;;;26.80;89.60;;;;;;5135512;27;20406;-74
2023/09/05 12:38:30;;;;;;;2.58;1.77;;;26.80;88.10;;;;;;5135139;27;20106;-74
2023/09/05 12:40:59;;;;;;;2.40;1.42;;;26.90;86.50;;;;;;5134935;27;20042;-74
2023/09/05 12:43:25;;;;;;;2.63;1.45;;;26.90;87.70;;;;;;5135015;27;20031;-74
2023/09/05 12:45:51;;;;;;;2.05;1.30;;;26.80;87.00;;;;;;5117118;27;20522;-73
2023/09/05 12:48:17;;;;;;;2.60;1.63;;;26.80;88.30;;;;;;5134814;27;20115;-73